sensor_id;sensor_type;location;lat;lon;timestamp;pressure;altitude;pressure_sealevel;temperature;humidity
50310;BME280;36207;51.850;21.698;2023-03-13T00:00:20;99470.01;;;1.31;67.18
50310;BME280;36207;51.850;21.698;2023-03-13T00:03:06;99461.98;;;1.31;67.21
50310;BME280;36207;51.850;21.698;2023-03-13T00:05:34;99458.46;;;1.31;67.39
50310;BME280;36207;51.850;21.698;2023-03-13T00:08:00;99450.40;;;1.31;67.09
50310;BME280;36207;51.850;21.698;2023-03-13T00:10:26;99440.58;;;1.31;67.32
50310;BME280;36207;51.850;21.698;2023-03-13T00:12:52;99441.23;;;1.29;67.55
50310;BME280;36207;51.850;21.698;2023-03-13T00:15:18;99451.90;;;1.26;67.50
50310;BME280;36207;51.850;21.698;2023-03-13T00:17:44;99458.11;;;1.27;67.60
50310;BME280;36207;51.850;21.698;2023-03-13T00:20:10;99457.27;;;1.26;67.78
50310;BME280;36207;51.850;21.698;2023-03-13T00:22:36;99452.86;;;1.28;67.60
50310;BME280;36207;51.850;21.698;2023-03-13T00:25:02;99444.85;;;1.30;67.71
50310;BME280;36207;51.850;21.698;2023-03-13T00:27:31;99439.91;;;1.30;67.98
50310;BME280;36207;51.850;21.698;2023-03-13T00:29:57;99438.20;;;1.30;67.65
50310;BME280;36207;51.850;21.698;2023-03-13T00:32:23;99443.77;;;1.30;67.66
50310;BME280;36207;51.850;21.698;2023-03-13T00:34:49;99438.22;;;1.32;67.50
50310;BME280;36207;51.850;21.698;2023-03-13T00:37:15;99436.30;;;1.33;67.36
50310;BME280;36207;51.850;21.698;2023-03-13T00:39:40;99437.75;;;1.35;67.57
50310;BME280;36207;51.850;21.698;2023-03-13T00:42:06;99429.94;;;1.32;67.77
50310;BME280;36207;51.850;21.698;2023-03-13T00:44:32;99426.73;;;1.29;67.70
50310;BME280;36207;51.850;21.698;2023-03-13T00:46:58;99421.12;;;1.28;67.62
50310;BME280;36207;51.850;21.698;2023-03-13T00:49:24;99415.36;;;1.30;67.82
50310;BME280;36207;51.850;21.698;2023-03-13T00:51:50;99413.63;;;1.32;67.71
50310;BME280;36207;51.850;21.698;2023-03-13T00:54:16;99413.35;;;1.35;67.70
50310;BME280;36207;51.850;21.698;2023-03-13T00:56:42;99412.67;;;1.37;68.06
50310;BME280;36207;51.850;21.698;2023-03-13T00:59:08;99409.04;;;1.37;67.85
50310;BME280;36207;51.850;21.698;2023-03-13T01:01:35;99409.23;;;1.37;68.09
50310;BME280;36207;51.850;21.698;2023-03-13T01:04:04;99402.44;;;1.33;68.24
50310;BME280;36207;51.850;21.698;2023-03-13T01:06:32;99404.08;;;1.31;68.10
50310;BME280;36207;51.850;21.698;2023-03-13T01:08:59;99408.43;;;1.31;67.99
50310;BME280;36207;51.850;21.698;2023-03-13T01:11:28;99413.86;;;1.31;68.02
50310;BME280;36207;51.850;21.698;2023-03-13T01:13:59;99408.78;;;1.31;68.38
50310;BME280;36207;51.850;21.698;2023-03-13T01:16:27;99405.68;;;1.29;68.11
50310;BME280;36207;51.850;21.698;2023-03-13T01:18:55;99409.98;;;1.34;67.88
50310;BME280;36207;51.850;21.698;2023-03-13T01:21:22;99408.95;;;1.41;68.00
50310;BME280;36207;51.850;21.698;2023-03-13T01:23:50;99409.67;;;1.47;67.71
50310;BME280;36207;51.850;21.698;2023-03-13T01:26:17;99410.90;;;1.53;67.57
50310;BME280;36207;51.850;21.698;2023-03-13T01:28:43;99411.48;;;1.59;67.69
50310;BME280;36207;51.850;21.698;2023-03-13T01:31:20;99401.52;;;1.62;67.52
50310;BME280;36207;51.850;21.698;2023-03-13T01:33:49;99400.39;;;1.65;67.53
50310;BME280;36207;51.850;21.698;2023-03-13T01:36:16;99402.91;;;1.66;67.48
50310;BME280;36207;51.850;21.698;2023-03-13T01:38:42;99402.38;;;1.66;67.35
50310;BME280;36207;51.850;21.698;2023-03-13T01:41:10;99395.41;;;1.69;67.37
50310;BME280;36207;51.850;21.698;2023-03-13T01:43:36;99400.73;;;1.73;67.43
50310;BME280;36207;51.850;21.698;2023-03-13T01:46:14;99394.83;;;1.74;67.34
50310;BME280;36207;51.850;21.698;2023-03-13T01:51:39;99391.30;;;1.74;67.34
50310;BME280;36207;51.850;21.698;2023-03-13T01:54:22;99393.25;;;1.74;67.47
50310;BME280;36207;51.850;21.698;2023-03-13T01:56:56;99398.13;;;1.70;67.66
50310;BME280;36207;51.850;21.698;2023-03-13T01:59:31;99402.00;;;1.72;68.03
50310;BME280;36207;51.850;21.698;2023-03-13T02:02:01;99406.66;;;1.73;68.65
50310;BME280;36207;51.850;21.698;2023-03-13T02:04:30;99407.33;;;1.72;69.18
50310;BME280;36207;51.850;21.698;2023-03-13T02:07:02;99404.96;;;1.67;69.78
50310;BME280;36207;51.850;21.698;2023-03-13T02:09:31;99403.52;;;1.61;69.70
50310;BME280;36207;51.850;21.698;2023-03-13T02:12:17;99402.70;;;1.56;70.39
50310;BME280;36207;51.850;21.698;2023-03-13T02:14:48;99393.15;;;1.53;70.43
50310;BME280;36207;51.850;21.698;2023-03-13T02:17:15;99386.86;;;1.55;70.35
50310;BME280;36207;51.850;21.698;2023-03-13T02:19:49;99380.30;;;1.58;70.34
50310;BME280;36207;51.850;21.698;2023-03-13T02:27:19;99374.92;;;1.57;71.01
50310;BME280;36207;51.850;21.698;2023-03-13T02:29:45;99369.02;;;1.51;71.88
50310;BME280;36207;51.850;21.698;2023-03-13T02:32:11;99365.73;;;1.48;70.91
50310;BME280;36207;51.850;21.698;2023-03-13T02:34:39;99363.89;;;1.49;70.68
50310;BME280;36207;51.850;21.698;2023-03-13T02:37:07;99363.27;;;1.52;70.99
50310;BME280;36207;51.850;21.698;2023-03-13T02:39:42;99366.35;;;1.53;71.65
50310;BME280;36207;51.850;21.698;2023-03-13T02:42:12;99362.61;;;1.50;71.40
50310;BME280;36207;51.850;21.698;2023-03-13T02:44:39;99364.70;;;1.48;72.04
50310;BME280;36207;51.850;21.698;2023-03-13T02:47:06;99367.11;;;1.47;71.46
50310;BME280;36207;51.850;21.698;2023-03-13T02:49:35;99370.92;;;1.49;71.97
50310;BME280;36207;51.850;21.698;2023-03-13T02:52:31;99370.67;;;1.51;71.71
50310;BME280;36207;51.850;21.698;2023-03-13T02:55:01;99369.51;;;1.55;71.91
50310;BME280;36207;51.850;21.698;2023-03-13T02:57:29;99362.54;;;1.54;71.68
50310;BME280;36207;51.850;21.698;2023-03-13T02:59:57;99362.95;;;1.55;72.21
50310;BME280;36207;51.850;21.698;2023-03-13T03:02:23;99361.35;;;1.54;71.87
50310;BME280;36207;51.850;21.698;2023-03-13T03:04:49;99364.49;;;1.52;71.73
50310;BME280;36207;51.850;21.698;2023-03-13T03:07:15;99362.52;;;1.51;72.05
50310;BME280;36207;51.850;21.698;2023-03-13T03:09:41;99357.49;;;1.50;71.86
50310;BME280;36207;51.850;21.698;2023-03-13T03:12:07;99348.71;;;1.52;71.88
50310;BME280;36207;51.850;21.698;2023-03-13T03:14:34;99344.95;;;1.53;72.14
50310;BME280;36207;51.850;21.698;2023-03-13T03:16:59;99336.61;;;1.52;72.13
50310;BME280;36207;51.850;21.698;2023-03-13T03:19:25;99341.69;;;1.52;72.77
50310;BME280;36207;51.850;21.698;2023-03-13T03:21:51;99339.17;;;1.47;72.62
50310;BME280;36207;51.850;21.698;2023-03-13T03:24:17;99340.31;;;1.44;72.75
50310;BME280;36207;51.850;21.698;2023-03-13T03:26:43;99338.13;;;1.45;72.14
50310;BME280;36207;51.850;21.698;2023-03-13T03:29:09;99337.83;;;1.48;72.28
50310;BME280;36207;51.850;21.698;2023-03-13T03:31:35;99332.95;;;1.52;72.23
50310;BME280;36207;51.850;21.698;2023-03-13T03:34:01;99329.13;;;1.53;71.88
50310;BME280;36207;51.850;21.698;2023-03-13T03:36:27;99329.21;;;1.56;71.78
50310;BME280;36207;51.850;21.698;2023-03-13T03:38:54;99333.02;;;1.57;71.95
50310;BME280;36207;51.850;21.698;2023-03-13T03:41:20;99328.33;;;1.56;72.00
50310;BME280;36207;51.850;21.698;2023-03-13T03:43:46;99327.25;;;1.57;71.87
50310;BME280;36207;51.850;21.698;2023-03-13T03:46:13;99330.46;;;1.62;71.80
50310;BME280;36207;51.850;21.698;2023-03-13T03:48:39;99326.25;;;1.68;71.40
50310;BME280;36207;51.850;21.698;2023-03-13T03:51:05;99333.08;;;1.72;71.45
50310;BME280;36207;51.850;21.698;2023-03-13T03:53:31;99331.79;;;1.74;71.31
50310;BME280;36207;51.850;21.698;2023-03-13T03:55:58;99331.78;;;1.74;71.29
50310;BME280;36207;51.850;21.698;2023-03-13T03:58:24;99329.81;;;1.75;71.37
50310;BME280;36207;51.850;21.698;2023-03-13T04:00:50;99327.77;;;1.74;71.20
50310;BME280;36207;51.850;21.698;2023-03-13T04:03:16;99329.44;;;1.77;71.13
50310;BME280;36207;51.850;21.698;2023-03-13T04:05:42;99331.13;;;1.82;71.05
50310;BME280;36207;51.850;21.698;2023-03-13T04:08:09;99326.95;;;1.85;70.71
50310;BME280;36207;51.850;21.698;2023-03-13T04:10:35;99322.50;;;1.88;70.63
50310;BME280;36207;51.850;21.698;2023-03-13T04:13:01;99320.05;;;1.90;70.70
50310;BME280;36207;51.850;21.698;2023-03-13T04:15:27;99329.81;;;1.90;70.70
50310;BME280;36207;51.850;21.698;2023-03-13T04:17:53;99330.45;;;1.91;70.81
50310;BME280;36207;51.850;21.698;2023-03-13T04:20:19;99329.45;;;1.91;70.76
50310;BME280;36207;51.850;21.698;2023-03-13T04:22:45;99325.40;;;1.93;70.76
50310;BME280;36207;51.850;21.698;2023-03-13T04:25:10;99323.38;;;1.95;70.83
50310;BME280;36207;51.850;21.698;2023-03-13T04:27:36;99316.80;;;1.94;70.71
50310;BME280;36207;51.850;21.698;2023-03-13T04:30:03;99316.05;;;1.95;70.82
50310;BME280;36207;51.850;21.698;2023-03-13T04:32:29;99317.40;;;1.97;70.78
50310;BME280;36207;51.850;21.698;2023-03-13T04:34:55;99315.85;;;1.97;70.86
50310;BME280;36207;51.850;21.698;2023-03-13T04:37:21;99314.66;;;1.96;70.91
50310;BME280;36207;51.850;21.698;2023-03-13T04:39:47;99315.66;;;1.97;70.94
50310;BME280;36207;51.850;21.698;2023-03-13T04:42:13;99314.19;;;1.98;71.10
50310;BME280;36207;51.850;21.698;2023-03-13T04:44:39;99308.09;;;1.99;71.05
50310;BME280;36207;51.850;21.698;2023-03-13T04:47:05;99303.88;;;2.01;71.01
50310;BME280;36207;51.850;21.698;2023-03-13T04:49:31;99297.74;;;2.03;71.13
50310;BME280;36207;51.850;21.698;2023-03-13T04:51:57;99297.30;;;2.04;71.11
50310;BME280;36207;51.850;21.698;2023-03-13T04:54:23;99291.31;;;2.02;71.13
50310;BME280;36207;51.850;21.698;2023-03-13T04:56:48;99293.02;;;2.01;71.44
50310;BME280;36207;51.850;21.698;2023-03-13T04:59:15;99294.02;;;2.01;71.80
50310;BME280;36207;51.850;21.698;2023-03-13T05:01:41;99292.16;;;2.00;72.11
50310;BME280;36207;51.850;21.698;2023-03-13T05:04:08;99294.47;;;2.00;72.19
50310;BME280;36207;51.850;21.698;2023-03-13T05:06:35;99289.05;;;1.96;73.30
50310;BME280;36207;51.850;21.698;2023-03-13T05:09:02;99289.98;;;1.92;73.06
50310;BME280;36207;51.850;21.698;2023-03-13T05:11:28;99283.38;;;1.89;73.23
50310;BME280;36207;51.850;21.698;2023-03-13T05:13:54;99280.75;;;1.89;73.50
50310;BME280;36207;51.850;21.698;2023-03-13T05:16:20;99276.62;;;1.90;73.97
50310;BME280;36207;51.850;21.698;2023-03-13T05:18:46;99271.64;;;1.89;74.90
50310;BME280;36207;51.850;21.698;2023-03-13T05:21:13;99265.75;;;1.85;74.97
50310;BME280;36207;51.850;21.698;2023-03-13T05:23:38;99266.35;;;1.86;75.50
50310;BME280;36207;51.850;21.698;2023-03-13T05:26:04;99268.55;;;1.87;75.99
50310;BME280;36207;51.850;21.698;2023-03-13T05:28:30;99268.28;;;1.89;75.39
50310;BME280;36207;51.850;21.698;2023-03-13T05:30:56;99265.04;;;1.90;75.91
50310;BME280;36207;51.850;21.698;2023-03-13T05:33:22;99265.54;;;1.89;75.93
50310;BME280;36207;51.850;21.698;2023-03-13T05:35:48;99268.17;;;1.91;76.53
50310;BME280;36207;51.850;21.698;2023-03-13T05:38:14;99272.71;;;1.89;78.04
50310;BME280;36207;51.850;21.698;2023-03-13T05:40:40;99274.58;;;1.88;77.19
50310;BME280;36207;51.850;21.698;2023-03-13T05:43:06;99278.63;;;1.88;77.79
50310;BME280;36207;51.850;21.698;2023-03-13T05:45:32;99276.21;;;1.87;78.08
50310;BME280;36207;51.850;21.698;2023-03-13T05:47:58;99279.84;;;1.90;77.69
50310;BME280;36207;51.850;21.698;2023-03-13T05:50:24;99280.22;;;1.93;78.74
50310;BME280;36207;51.850;21.698;2023-03-13T05:52:50;99271.39;;;1.97;78.47
50310;BME280;36207;51.850;21.698;2023-03-13T05:55:17;99266.33;;;1.97;79.11
50310;BME280;36207;51.850;21.698;2023-03-13T05:57:47;99266.60;;;1.98;79.03
50310;BME280;36207;51.850;21.698;2023-03-13T06:00:15;99267.66;;;2.00;80.41
50310;BME280;36207;51.850;21.698;2023-03-13T06:02:42;99275.92;;;2.02;79.90
50310;BME280;36207;51.850;21.698;2023-03-13T06:05:08;99282.41;;;2.02;79.34
50310;BME280;36207;51.850;21.698;2023-03-13T06:07:35;99287.91;;;2.05;78.99
50310;BME280;36207;51.850;21.698;2023-03-13T06:10:01;99286.41;;;2.10;79.44
50310;BME280;36207;51.850;21.698;2023-03-13T06:12:27;99286.76;;;2.12;79.03
50310;BME280;36207;51.850;21.698;2023-03-13T06:14:53;99279.77;;;2.13;79.22
50310;BME280;36207;51.850;21.698;2023-03-13T06:17:19;99283.70;;;2.14;79.05
50310;BME280;36207;51.850;21.698;2023-03-13T06:19:45;99283.16;;;2.16;79.43
50310;BME280;36207;51.850;21.698;2023-03-13T06:22:11;99288.39;;;2.17;79.96
50310;BME280;36207;51.850;21.698;2023-03-13T06:24:37;99289.50;;;2.16;80.88
50310;BME280;36207;51.850;21.698;2023-03-13T06:27:03;99282.47;;;2.14;79.76
50310;BME280;36207;51.850;21.698;2023-03-13T06:29:30;99282.09;;;2.16;80.34
50310;BME280;36207;51.850;21.698;2023-03-13T06:31:56;99272.48;;;2.18;81.19
50310;BME280;36207;51.850;21.698;2023-03-13T06:34:21;99267.83;;;2.20;80.52
50310;BME280;36207;51.850;21.698;2023-03-13T06:36:47;99258.71;;;2.22;81.03
50310;BME280;36207;51.850;21.698;2023-03-13T06:39:13;99259.31;;;2.21;81.94
50310;BME280;36207;51.850;21.698;2023-03-13T06:41:39;99264.38;;;2.22;81.48
50310;BME280;36207;51.850;21.698;2023-03-13T06:44:05;99269.52;;;2.25;81.86
50310;BME280;36207;51.850;21.698;2023-03-13T06:46:31;99271.20;;;2.28;81.85
50310;BME280;36207;51.850;21.698;2023-03-13T06:48:57;99264.08;;;2.29;82.11
50310;BME280;36207;51.850;21.698;2023-03-13T06:51:24;99253.76;;;2.34;81.43
50310;BME280;36207;51.850;21.698;2023-03-13T06:53:51;99256.30;;;2.39;81.57
50310;BME280;36207;51.850;21.698;2023-03-13T06:56:17;99253.73;;;2.45;82.16
50310;BME280;36207;51.850;21.698;2023-03-13T06:58:47;99256.89;;;2.47;82.64
50310;BME280;36207;51.850;21.698;2023-03-13T07:01:14;99253.40;;;2.51;83.17
50310;BME280;36207;51.850;21.698;2023-03-13T07:03:41;99248.95;;;2.53;83.06
50310;BME280;36207;51.850;21.698;2023-03-13T07:06:08;99250.58;;;2.60;82.08
50310;BME280;36207;51.850;21.698;2023-03-13T07:08:36;99251.92;;;2.68;81.57
50310;BME280;36207;51.850;21.698;2023-03-13T07:11:05;99248.42;;;2.79;81.19
50310;BME280;36207;51.850;21.698;2023-03-13T07:13:31;99243.89;;;2.84;82.80
50310;BME280;36207;51.850;21.698;2023-03-13T07:16:02;99242.06;;;2.88;82.83
50310;BME280;36207;51.850;21.698;2023-03-13T07:18:32;99239.09;;;2.97;82.64
50310;BME280;36207;51.850;21.698;2023-03-13T07:21:00;99239.90;;;3.03;83.09
50310;BME280;36207;51.850;21.698;2023-03-13T07:23:28;99240.14;;;3.08;82.73
50310;BME280;36207;51.850;21.698;2023-03-13T07:25:56;99238.76;;;3.11;82.42
50310;BME280;36207;51.850;21.698;2023-03-13T07:28:23;99238.23;;;3.15;82.29
50310;BME280;36207;51.850;21.698;2023-03-13T07:30:49;99236.69;;;3.18;82.96
50310;BME280;36207;51.850;21.698;2023-03-13T07:33:16;99227.71;;;3.22;83.27
50310;BME280;36207;51.850;21.698;2023-03-13T07:35:51;99225.05;;;3.27;83.01
50310;BME280;36207;51.850;21.698;2023-03-13T07:38:18;99223.52;;;3.36;82.43
50310;BME280;36207;51.850;21.698;2023-03-13T07:40:52;99217.95;;;3.42;82.28
50310;BME280;36207;51.850;21.698;2023-03-13T07:43:19;99216.45;;;3.48;82.81
50310;BME280;36207;51.850;21.698;2023-03-13T07:45:59;99212.02;;;3.54;82.24
50310;BME280;36207;51.850;21.698;2023-03-13T07:48:34;99211.06;;;3.60;82.21
50310;BME280;36207;51.850;21.698;2023-03-13T07:51:00;99206.23;;;3.66;82.48
50310;BME280;36207;51.850;21.698;2023-03-13T07:53:27;99210.35;;;3.71;82.39
50310;BME280;36207;51.850;21.698;2023-03-13T07:55:56;99214.81;;;3.77;82.17
50310;BME280;36207;51.850;21.698;2023-03-13T07:58:23;99209.92;;;3.82;81.76
50310;BME280;36207;51.850;21.698;2023-03-13T08:00:49;99207.24;;;3.87;81.66
50310;BME280;36207;51.850;21.698;2023-03-13T08:03:15;99205.48;;;3.94;81.35
50310;BME280;36207;51.850;21.698;2023-03-13T08:05:41;99207.75;;;4.05;81.54
50310;BME280;36207;51.850;21.698;2023-03-13T08:08:07;99208.79;;;4.12;81.67
50310;BME280;36207;51.850;21.698;2023-03-13T08:10:33;99212.80;;;4.17;81.46
50310;BME280;36207;51.850;21.698;2023-03-13T08:12:59;99206.09;;;4.21;81.06
50310;BME280;36207;51.850;21.698;2023-03-13T08:15:25;99205.04;;;4.26;81.21
50310;BME280;36207;51.850;21.698;2023-03-13T08:17:54;99201.56;;;4.31;80.96
50310;BME280;36207;51.850;21.698;2023-03-13T08:20:20;99200.80;;;4.36;81.05
50310;BME280;36207;51.850;21.698;2023-03-13T08:22:46;99204.20;;;4.41;81.08
50310;BME280;36207;51.850;21.698;2023-03-13T08:25:13;99200.60;;;4.45;81.26
50310;BME280;36207;51.850;21.698;2023-03-13T08:27:39;99200.09;;;4.48;81.22
50310;BME280;36207;51.850;21.698;2023-03-13T08:30:06;99193.11;;;4.53;81.05
50310;BME280;36207;51.850;21.698;2023-03-13T08:32:33;99191.63;;;4.62;81.09
50310;BME280;36207;51.850;21.698;2023-03-13T08:34:59;99190.13;;;4.71;81.00
50310;BME280;36207;51.850;21.698;2023-03-13T08:37:24;99190.35;;;4.79;81.02
50310;BME280;36207;51.850;21.698;2023-03-13T08:39:50;99190.27;;;4.86;80.91
50310;BME280;36207;51.850;21.698;2023-03-13T08:42:18;99191.20;;;4.96;81.02
50310;BME280;36207;51.850;21.698;2023-03-13T08:44:44;99189.06;;;5.04;80.88
50310;BME280;36207;51.850;21.698;2023-03-13T08:47:10;99186.83;;;5.12;80.57
50310;BME280;36207;51.850;21.698;2023-03-13T08:49:36;99190.27;;;5.23;80.68
50310;BME280;36207;51.850;21.698;2023-03-13T08:52:03;99196.30;;;5.31;80.68
50310;BME280;36207;51.850;21.698;2023-03-13T08:54:30;99190.23;;;5.38;80.40
50310;BME280;36207;51.850;21.698;2023-03-13T08:56:56;99189.35;;;5.48;80.48
50310;BME280;36207;51.850;21.698;2023-03-13T08:59:22;99187.98;;;5.57;80.25
50310;BME280;36207;51.850;21.698;2023-03-13T09:01:48;99189.30;;;5.63;80.07
50310;BME280;36207;51.850;21.698;2023-03-13T09:04:14;99179.36;;;5.70;80.18
50310;BME280;36207;51.850;21.698;2023-03-13T09:06:39;99180.98;;;5.84;80.29
50310;BME280;36207;51.850;21.698;2023-03-13T09:09:07;99178.02;;;5.96;80.44
50310;BME280;36207;51.850;21.698;2023-03-13T09:11:33;99169.64;;;6.08;80.10
50310;BME280;36207;51.850;21.698;2023-03-13T09:13:59;99166.56;;;6.20;80.30
50310;BME280;36207;51.850;21.698;2023-03-13T09:16:29;99159.08;;;6.37;80.36
50310;BME280;36207;51.850;21.698;2023-03-13T09:18:56;99158.15;;;6.54;80.27
50310;BME280;36207;51.850;21.698;2023-03-13T09:21:25;99156.73;;;6.70;79.68
50310;BME280;36207;51.850;21.698;2023-03-13T09:23:51;99151.23;;;6.81;79.39
50310;BME280;36207;51.850;21.698;2023-03-13T09:26:18;99144.61;;;6.92;79.53
50310;BME280;36207;51.850;21.698;2023-03-13T09:28:45;99139.38;;;7.03;79.56
50310;BME280;36207;51.850;21.698;2023-03-13T09:31:18;99130.98;;;7.15;79.17
50310;BME280;36207;51.850;21.698;2023-03-13T09:33:46;99134.78;;;7.31;78.68
50310;BME280;36207;51.850;21.698;2023-03-13T09:36:12;99132.73;;;7.45;78.61
50310;BME280;36207;51.850;21.698;2023-03-13T09:38:39;99130.34;;;7.61;78.09
50310;BME280;36207;51.850;21.698;2023-03-13T09:41:25;99128.05;;;7.77;78.20
50310;BME280;36207;51.850;21.698;2023-03-13T09:46:33;99121.70;;;8.10;77.53
50310;BME280;36207;51.850;21.698;2023-03-13T09:49:37;99118.54;;;8.24;77.56
50310;BME280;36207;51.850;21.698;2023-03-13T09:52:17;99117.54;;;8.31;76.38
50310;BME280;36207;51.850;21.698;2023-03-13T09:57:48;99107.23;;;8.40;75.95
50310;BME280;36207;51.850;21.698;2023-03-13T10:00:23;99102.77;;;8.43;76.00
50310;BME280;36207;51.850;21.698;2023-03-13T10:05:23;99086.89;;;8.57;76.37
50310;BME280;36207;51.850;21.698;2023-03-13T10:07:50;99084.13;;;8.68;76.53
50310;BME280;36207;51.850;21.698;2023-03-13T10:10:28;99079.91;;;8.76;76.10
50310;BME280;36207;51.850;21.698;2023-03-13T10:13:17;99080.76;;;8.79;75.96
50310;BME280;36207;51.850;21.698;2023-03-13T10:16:19;99079.94;;;8.83;75.83
50310;BME280;36207;51.850;21.698;2023-03-13T10:18:51;99078.05;;;8.87;75.62
50310;BME280;36207;51.850;21.698;2023-03-13T10:21:24;99072.92;;;8.92;76.06
50310;BME280;36207;51.850;21.698;2023-03-13T10:23:56;99066.00;;;8.97;75.13
50310;BME280;36207;51.850;21.698;2023-03-13T10:26:28;99061.02;;;9.04;75.73
50310;BME280;36207;51.850;21.698;2023-03-13T10:28:56;99060.23;;;9.13;75.83
50310;BME280;36207;51.850;21.698;2023-03-13T10:31:27;99055.86;;;9.20;75.95
50310;BME280;36207;51.850;21.698;2023-03-13T10:34:06;99054.75;;;9.26;75.64
50310;BME280;36207;51.850;21.698;2023-03-13T10:36:44;99059.56;;;9.29;75.04
50310;BME280;36207;51.850;21.698;2023-03-13T10:39:20;99061.15;;;9.31;74.93
50310;BME280;36207;51.850;21.698;2023-03-13T10:41:50;99049.17;;;9.30;75.35
50310;BME280;36207;51.850;21.698;2023-03-13T10:44:22;99051.70;;;9.34;74.39
50310;BME280;36207;51.850;21.698;2023-03-13T10:46:50;99047.25;;;9.35;73.48
50310;BME280;36207;51.850;21.698;2023-03-13T10:49:23;99045.58;;;9.35;72.38
50310;BME280;36207;51.850;21.698;2023-03-13T10:51:55;99035.90;;;9.37;74.03
50310;BME280;36207;51.850;21.698;2023-03-13T10:54:29;99040.88;;;9.41;73.45
50310;BME280;36207;51.850;21.698;2023-03-13T10:59:48;99041.08;;;9.45;72.72
50310;BME280;36207;51.850;21.698;2023-03-13T11:02:30;99035.77;;;9.48;73.40
50310;BME280;36207;51.850;21.698;2023-03-13T11:04:57;99032.05;;;9.53;73.45
50310;BME280;36207;51.850;21.698;2023-03-13T11:07:28;99019.41;;;9.59;73.55
50310;BME280;36207;51.850;21.698;2023-03-13T11:10:00;99010.48;;;9.66;73.43
50310;BME280;36207;51.850;21.698;2023-03-13T11:12:26;99004.70;;;9.74;73.12
50310;BME280;36207;51.850;21.698;2023-03-13T11:14:57;98995.77;;;9.81;73.40
50310;BME280;36207;51.850;21.698;2023-03-13T11:17:31;98988.29;;;9.86;73.46
50310;BME280;36207;51.850;21.698;2023-03-13T11:20:27;98980.84;;;9.91;73.56
50310;BME280;36207;51.850;21.698;2023-03-13T11:23:08;98976.90;;;9.92;72.23
50310;BME280;36207;51.850;21.698;2023-03-13T11:31:10;98964.05;;;9.91;72.07
50310;BME280;36207;51.850;21.698;2023-03-13T11:33:41;98964.15;;;9.92;72.54
50310;BME280;36207;51.850;21.698;2023-03-13T11:36:27;98967.35;;;9.95;72.20
50310;BME280;36207;51.850;21.698;2023-03-13T11:39:05;98966.30;;;9.96;71.73
50310;BME280;36207;51.850;21.698;2023-03-13T11:49:59;98945.09;;;10.01;70.72
50310;BME280;36207;51.850;21.698;2023-03-13T11:52:39;98935.91;;;10.01;71.00
50310;BME280;36207;51.850;21.698;2023-03-13T11:55:23;98932.70;;;10.05;70.98
50310;BME280;36207;51.850;21.698;2023-03-13T11:58:00;98924.17;;;10.08;70.59
50310;BME280;36207;51.850;21.698;2023-03-13T12:00:57;98919.55;;;10.12;69.97
50310;BME280;36207;51.850;21.698;2023-03-13T12:04:00;98912.95;;;10.20;70.90
50310;BME280;36207;51.850;21.698;2023-03-13T12:08:53;98891.35;;;10.63;71.37
50310;BME280;36207;51.850;21.698;2023-03-13T12:11:27;98889.10;;;10.86;70.73
50310;BME280;36207;51.850;21.698;2023-03-13T12:14:00;98885.00;;;11.01;68.54
50310;BME280;36207;51.850;21.698;2023-03-13T12:16:50;98874.95;;;11.09;68.65
50310;BME280;36207;51.850;21.698;2023-03-13T12:22:17;98872.90;;;11.19;68.01
50310;BME280;36207;51.850;21.698;2023-03-13T12:24:51;98872.71;;;11.11;66.80
50310;BME280;36207;51.850;21.698;2023-03-13T12:27:34;98869.46;;;11.03;67.54
50310;BME280;36207;51.850;21.698;2023-03-13T12:30:20;98867.04;;;11.01;68.28
50310;BME280;36207;51.850;21.698;2023-03-13T12:33:00;98864.81;;;11.01;68.81
50310;BME280;36207;51.850;21.698;2023-03-13T12:35:28;98863.23;;;11.00;68.07
50310;BME280;36207;51.850;21.698;2023-03-13T12:38:23;98857.05;;;10.97;68.24
50310;BME280;36207;51.850;21.698;2023-03-13T12:41:22;98855.30;;;10.97;68.44
50310;BME280;36207;51.850;21.698;2023-03-13T12:43:51;98852.70;;;10.98;69.04
50310;BME280;36207;51.850;21.698;2023-03-13T12:56:58;98846.73;;;10.89;68.21
50310;BME280;36207;51.850;21.698;2023-03-13T12:59:37;98845.16;;;10.90;68.70
50310;BME280;36207;51.850;21.698;2023-03-13T13:02:26;98844.75;;;10.90;68.66
50310;BME280;36207;51.850;21.698;2023-03-13T13:04:53;98841.41;;;10.91;69.32
50310;BME280;36207;51.850;21.698;2023-03-13T13:07:24;98832.64;;;10.89;68.95
50310;BME280;36207;51.850;21.698;2023-03-13T13:12:36;98824.60;;;10.85;69.86
50310;BME280;36207;51.850;21.698;2023-03-13T13:15:13;98820.95;;;10.82;70.14
50310;BME280;36207;51.850;21.698;2023-03-13T13:18:03;98811.71;;;10.80;70.26
50310;BME280;36207;51.850;21.698;2023-03-13T13:20:46;98808.51;;;10.80;70.37
50310;BME280;36207;51.850;21.698;2023-03-13T13:23:28;98804.55;;;10.81;70.31
50310;BME280;36207;51.850;21.698;2023-03-13T13:28:52;98792.42;;;10.85;70.17
50310;BME280;36207;51.850;21.698;2023-03-13T13:36:57;98787.54;;;10.85;70.58
50310;BME280;36207;51.850;21.698;2023-03-13T13:39:40;98791.29;;;10.82;70.64
50310;BME280;36207;51.850;21.698;2023-03-13T13:47:41;98785.27;;;10.78;70.67
50310;BME280;36207;51.850;21.698;2023-03-13T13:52:43;98786.21;;;10.73;71.11
50310;BME280;36207;51.850;21.698;2023-03-13T13:58:21;98787.18;;;10.66;71.28
50310;BME280;36207;51.850;21.698;2023-03-13T14:00:54;98781.33;;;10.61;71.61
50310;BME280;36207;51.850;21.698;2023-03-13T14:03:27;98786.52;;;10.57;71.81
50310;BME280;36207;51.850;21.698;2023-03-13T14:05:55;98783.73;;;10.52;72.03
50310;BME280;36207;51.850;21.698;2023-03-13T14:08:29;98782.99;;;10.50;71.96
50310;BME280;36207;51.850;21.698;2023-03-13T14:13:40;98780.41;;;10.47;72.60
50310;BME280;36207;51.850;21.698;2023-03-13T14:16:24;98778.69;;;10.44;72.59
50310;BME280;36207;51.850;21.698;2023-03-13T14:18:51;98778.52;;;10.41;72.99
50310;BME280;36207;51.850;21.698;2023-03-13T14:21:24;98780.84;;;10.40;73.03
50310;BME280;36207;51.850;21.698;2023-03-13T14:23:52;98781.73;;;10.40;73.19